createdAt,value
2019-05-28T00:02:01.756Z,76.88
2019-05-28T00:04:40.172Z,76.48
2019-05-28T00:07:17.178Z,76.19
2019-05-28T00:09:54.284Z,77.06
2019-05-28T00:12:34.557Z,76.66
2019-05-28T00:15:14.713Z,74.09
2019-05-28T00:17:53.159Z,74.09
2019-05-28T00:20:30.995Z,74.43
2019-05-28T00:23:08.069Z,74.89
2019-05-28T00:25:45.890Z,75.09
2019-05-28T00:28:23.021Z,74.00
2019-05-28T00:31:00.856Z,72.67
2019-05-28T00:33:38.907Z,73.57
2019-05-28T00:36:17.345Z,73.63
2019-05-28T00:38:54.930Z,73.02
2019-05-28T00:41:32.255Z,70.72
2019-05-28T00:44:09.800Z,70.18
2019-05-28T00:46:49.354Z,71.68
2019-05-28T00:49:27.669Z,71.93
2019-05-28T00:52:05.236Z,71.12
2019-05-28T00:54:43.351Z,70.13
2019-05-28T00:57:22.364Z,70.33
2019-05-28T01:00:00.300Z,70.44
2019-05-28T01:02:38.853Z,69.87
2019-05-28T01:05:17.139Z,68.48
2019-05-28T01:07:54.908Z,69.46
2019-05-28T01:10:32.090Z,68.84
2019-05-28T01:13:10.205Z,68.02
2019-05-28T01:15:47.458Z,68.77
2019-05-28T01:18:25.548Z,69.69
2019-05-28T01:21:04.033Z,69.84
2019-05-28T01:23:41.428Z,69.29
2019-05-28T01:26:18.546Z,66.80
2019-05-28T01:28:56.478Z,68.19
2019-05-28T01:31:33.971Z,68.13
2019-05-28T01:34:11.741Z,68.31
2019-05-28T01:36:49.141Z,67.07
2019-05-28T01:39:27.476Z,65.87
2019-05-28T01:42:04.595Z,66.57
2019-05-28T01:44:42.194Z,67.72
2019-05-28T01:47:20.486Z,65.87
2019-05-28T01:49:58.789Z,65.17
2019-05-28T01:52:37.275Z,66.07
2019-05-28T01:55:15.166Z,64.14
2019-05-28T01:57:52.583Z,63.14
2019-05-28T02:00:30.768Z,63.83
2019-05-28T02:03:08.865Z,62.95
2019-05-28T02:05:47.431Z,63.40
2019-05-28T02:08:25.022Z,63.01
2019-05-28T02:11:04.098Z,64.10
2019-05-28T02:13:42.858Z,64.68
2019-05-28T02:16:21.651Z,63.66
2019-05-28T02:18:59.194Z,63.47
2019-05-28T02:21:37.748Z,62.42
2019-05-28T02:24:16.629Z,63.07
2019-05-28T02:26:54.547Z,64.53
2019-05-28T02:29:31.939Z,64.09
2019-05-28T02:32:10.662Z,63.02
2019-05-28T02:34:47.958Z,62.34
2019-05-28T02:37:27.450Z,63.09
2019-05-28T02:40:04.651Z,64.03
2019-05-28T02:42:43.274Z,63.70
2019-05-28T02:45:20.988Z,64.00
2019-05-28T02:47:59.116Z,62.31
2019-05-28T02:51:00.402Z,61.67
2019-05-28T02:53:38.463Z,62.32
2019-05-28T02:56:19.341Z,64.83
2019-05-28T02:58:57.286Z,63.96
2019-05-28T03:01:44.206Z,63.93
2019-05-28T03:04:17.695Z,63.33
2019-05-28T03:06:56.308Z,64.44
2019-05-28T03:09:34.764Z,63.05
2019-05-28T03:12:11.435Z,63.48
2019-05-28T03:14:49.099Z,62.87
2019-05-28T03:17:26.885Z,63.20
2019-05-28T03:20:08.196Z,62.59
2019-05-28T03:22:46.944Z,63.71
2019-05-28T03:25:25.450Z,62.16
2019-05-28T03:28:05.146Z,60.08
2019-05-28T03:30:42.658Z,60.96
2019-05-28T03:33:20.352Z,61.94
2019-05-28T03:36:00.664Z,60.68
2019-05-28T03:38:38.653Z,61.50
2019-05-28T03:41:16.073Z,60.39
2019-05-28T03:43:53.567Z,57.96
2019-05-28T03:50:00.243Z,56.98
2019-05-28T03:52:39.932Z,56.25
2019-05-28T03:55:19.724Z,55.71
2019-05-28T03:57:57.990Z,57.64
2019-05-28T04:00:36.108Z,57.75
2019-05-28T04:03:13.821Z,55.74
2019-05-28T04:05:51.570Z,54.87
2019-05-28T04:08:29.342Z,55.28
2019-05-28T04:11:06.699Z,55.10
2019-05-28T04:13:43.726Z,54.47
2019-05-28T04:16:22.764Z,53.85
2019-05-28T04:19:00.436Z,53.23
2019-05-28T04:21:38.546Z,53.25
2019-05-28T04:24:16.140Z,53.91
2019-05-28T04:26:54.169Z,55.08
2019-05-28T04:29:33.912Z,55.27
2019-05-28T04:32:11.758Z,55.59
2019-05-28T04:34:48.962Z,55.58
2019-05-28T04:37:27.278Z,57.53
2019-05-28T04:40:04.596Z,56.61
2019-05-28T04:42:41.980Z,58.10
2019-05-28T04:45:19.906Z,58.63
2019-05-28T04:47:57.798Z,57.49
2019-05-28T04:50:35.579Z,57.54
2019-05-28T04:53:13.434Z,59.57
2019-05-28T04:55:51.291Z,58.57
2019-05-28T04:58:29.534Z,57.46
2019-05-28T05:01:09.094Z,58.86
2019-05-28T05:03:46.584Z,59.35
2019-05-28T05:06:23.910Z,59.49
2019-05-28T05:09:02.363Z,56.78
2019-05-28T05:11:39.637Z,56.27
2019-05-28T05:14:16.998Z,56.13
2019-05-28T05:16:54.573Z,56.96
2019-05-28T05:19:32.837Z,56.66
2019-05-28T05:22:10.347Z,56.30
2019-05-28T05:24:48.158Z,56.14
2019-05-28T05:27:25.819Z,56.13
2019-05-28T05:30:04.192Z,56.07
2019-05-28T05:32:42.338Z,55.15
2019-05-28T05:35:20.056Z,55.17
2019-05-28T05:37:57.203Z,56.48
2019-05-28T05:40:35.597Z,56.87
2019-05-28T05:43:13.169Z,56.38
2019-05-28T05:45:50.958Z,55.70
2019-05-28T05:48:28.394Z,54.56
2019-05-28T05:51:06.399Z,54.09
2019-05-28T05:53:43.854Z,54.51
2019-05-28T05:56:22.061Z,54.35
2019-05-28T05:58:59.016Z,54.25
2019-05-28T06:01:36.872Z,54.45
2019-05-28T06:04:15.355Z,54.70
2019-05-28T06:06:53.783Z,54.02
2019-05-28T06:09:31.187Z,54.04
2019-05-28T06:12:09.492Z,53.49
2019-05-28T06:14:47.024Z,53.54
2019-05-28T06:17:24.493Z,53.36
2019-05-28T06:20:01.689Z,52.36
2019-05-28T06:22:40.646Z,53.05
2019-05-28T06:25:18.972Z,52.95
2019-05-28T06:27:56.778Z,52.20
2019-05-28T06:30:33.835Z,51.85
2019-05-28T06:33:12.358Z,52.16
2019-05-28T06:35:51.682Z,51.43
2019-05-28T06:38:29.301Z,51.36
2019-05-28T06:41:07.275Z,51.10
2019-05-28T06:43:45.338Z,50.55
2019-05-28T06:46:22.303Z,50.25
2019-05-28T06:48:59.544Z,49.91
2019-05-28T06:51:37.101Z,50.58
2019-05-28T06:54:15.098Z,50.22
2019-05-28T06:56:53.004Z,49.41
2019-05-28T06:59:30.461Z,49.82
2019-05-28T07:02:08.074Z,49.84
2019-05-28T07:04:46.211Z,48.81
2019-05-28T07:07:25.202Z,48.79
2019-05-28T07:10:02.531Z,48.92
2019-05-28T07:12:40.147Z,48.21
2019-05-28T07:15:18.451Z,48.99
2019-05-28T07:17:59.500Z,47.94
2019-05-28T07:20:35.395Z,51.53
2019-05-28T07:23:12.706Z,51.54
2019-05-28T07:25:50.318Z,52.05
2019-05-28T07:28:27.431Z,52.23
2019-05-28T07:31:05.807Z,52.30
2019-05-28T07:33:43.366Z,51.46
2019-05-28T07:36:21.539Z,51.41
2019-05-28T07:38:59.816Z,52.83
2019-05-28T07:41:38.614Z,53.12
2019-05-28T07:44:16.228Z,53.53
2019-05-28T07:46:54.747Z,54.98
2019-05-28T07:49:32.183Z,55.60
2019-05-28T07:52:10.402Z,56.01
2019-05-28T07:54:47.863Z,55.97
2019-05-28T07:57:26.855Z,55.93
2019-05-28T08:00:05.550Z,56.29
2019-05-28T08:02:42.824Z,57.10
2019-05-28T08:05:20.278Z,57.40
2019-05-28T08:07:59.375Z,57.69
2019-05-28T08:10:38.186Z,57.50
2019-05-28T08:13:15.753Z,56.76
2019-05-28T08:15:53.205Z,56.67
2019-05-28T08:18:31.494Z,56.45
2019-05-28T08:21:10.013Z,57.82
2019-05-28T08:23:47.660Z,58.19
2019-05-28T08:26:24.666Z,59.12
2019-05-28T08:29:02.519Z,59.78
2019-05-28T08:31:40.049Z,60.71
2019-05-28T08:34:19.612Z,61.10
2019-05-28T08:37:05.694Z,61.26
2019-05-28T08:39:37.470Z,59.62
2019-05-28T08:42:15.878Z,58.72
2019-05-28T08:44:53.640Z,59.16
2019-05-28T08:47:30.799Z,60.40
2019-05-28T08:50:09.294Z,59.67
2019-05-28T08:52:47.707Z,58.96
2019-05-28T08:55:25.217Z,59.13
2019-05-28T08:58:03.898Z,58.53
2019-05-28T09:00:43.569Z,58.83
2019-05-28T09:03:20.718Z,59.91
2019-05-28T09:05:58.232Z,60.06
2019-05-28T09:08:39.678Z,60.15
2019-05-28T09:11:16.050Z,60.58
2019-05-28T09:13:54.414Z,59.34
2019-05-28T09:16:31.879Z,59.15
2019-05-28T09:19:10.511Z,58.47
2019-05-28T09:21:48.413Z,58.31
2019-05-28T09:24:27.877Z,58.74
2019-05-28T09:27:05.258Z,58.82
2019-05-28T09:29:42.840Z,60.79
2019-05-28T09:32:20.669Z,60.21
2019-05-28T09:35:01.687Z,59.62
2019-05-28T09:37:37.855Z,59.40
2019-05-28T09:40:15.875Z,60.50
2019-05-28T09:42:54.296Z,60.29
2019-05-28T09:45:32.423Z,59.99
2019-05-28T09:48:10.027Z,60.30
2019-05-28T09:50:47.539Z,60.52
2019-05-28T09:53:25.493Z,60.65
2019-05-28T09:56:03.461Z,61.08
2019-05-28T09:58:42.528Z,60.70
2019-05-28T10:01:21.260Z,59.93
2019-05-28T10:03:59.506Z,60.90
2019-05-28T10:06:41.031Z,61.31
2019-05-28T10:09:17.158Z,61.18
2019-05-28T10:11:54.553Z,60.50
2019-05-28T10:14:32.659Z,60.91
2019-05-28T10:17:11.107Z,60.41
2019-05-28T10:19:48.720Z,61.22
2019-05-28T10:22:26.532Z,60.67
2019-05-28T10:25:04.405Z,60.86
2019-05-28T10:27:59.441Z,61.39
2019-05-28T10:30:21.518Z,60.98
2019-05-28T10:32:58.758Z,59.91
2019-05-28T10:35:38.407Z,61.43
2019-05-28T10:38:17.159Z,62.36
2019-05-28T10:40:56.324Z,61.10
2019-05-28T10:43:33.422Z,61.79
2019-05-28T10:46:11.699Z,61.81
2019-05-28T10:48:50.300Z,62.62
2019-05-28T10:51:27.679Z,63.97
2019-05-28T10:54:04.940Z,64.14
2019-05-28T10:56:42.940Z,64.15
2019-05-28T10:59:20.948Z,64.56
2019-05-28T11:01:58.867Z,64.50
2019-05-28T11:04:36.445Z,64.16
2019-05-28T11:07:14.246Z,62.66
2019-05-28T11:09:52.389Z,61.87
2019-05-28T11:12:30.395Z,62.27
2019-05-28T11:15:08.426Z,63.91
2019-05-28T11:17:46.799Z,64.44
2019-05-28T11:20:25.349Z,65.26
2019-05-28T11:23:02.603Z,65.54
2019-05-28T11:25:40.123Z,65.33
2019-05-28T11:28:18.504Z,65.56
2019-05-28T11:30:55.885Z,66.43
2019-05-28T11:33:34.743Z,66.44
2019-05-28T11:36:12.162Z,66.17
2019-05-28T11:38:49.955Z,66.33
2019-05-28T11:41:41.538Z,65.40
2019-05-28T11:44:07.070Z,65.18
2019-05-28T11:46:44.850Z,65.18
2019-05-28T11:49:22.897Z,64.78
2019-05-28T11:52:01.413Z,64.77
2019-05-28T11:54:39.474Z,64.60
2019-05-28T11:57:17.165Z,64.47
2019-05-28T11:59:56.027Z,64.93
2019-05-28T12:02:33.539Z,65.31
2019-05-28T12:05:12.041Z,65.06
2019-05-28T12:07:51.810Z,65.84
2019-05-28T12:10:31.311Z,66.30
2019-05-28T12:13:10.883Z,65.87
2019-05-28T12:15:49.029Z,65.73
2019-05-28T12:18:26.298Z,65.97
2019-05-28T12:21:04.985Z,66.30
2019-05-28T12:23:43.348Z,66.32
2019-05-28T12:26:21.111Z,65.73
2019-05-28T12:28:58.699Z,66.08
2019-05-28T12:31:36.515Z,66.83
2019-05-28T12:34:14.367Z,65.90
2019-05-28T12:36:51.627Z,65.30
2019-05-28T12:39:29.607Z,66.01
2019-05-28T12:42:08.462Z,65.83
2019-05-28T12:44:45.873Z,65.77
2019-05-28T12:47:28.847Z,64.87
2019-05-28T12:50:19.214Z,65.03
2019-05-28T12:52:50.305Z,66.44
2019-05-28T12:55:28.714Z,65.97
2019-05-28T12:58:06.314Z,66.21
2019-05-28T13:00:44.484Z,66.05
2019-05-28T13:03:22.210Z,66.43
2019-05-28T13:06:00.811Z,66.61
2019-05-28T13:08:39.332Z,66.04
2019-05-28T13:11:17.562Z,65.79
2019-05-28T13:13:55.043Z,65.87
2019-05-28T13:16:33.041Z,66.11
2019-05-28T13:19:10.905Z,65.72
2019-05-28T13:21:48.597Z,66.07
2019-05-28T13:24:26.112Z,65.90
2019-05-28T13:27:17.461Z,65.92
2019-05-28T13:29:43.169Z,66.06
2019-05-28T13:32:20.639Z,66.16
2019-05-28T13:34:58.251Z,65.63
2019-05-28T13:37:36.562Z,66.20
2019-05-28T13:40:16.275Z,66.05
2019-05-28T13:42:53.858Z,66.60
2019-05-28T13:45:31.463Z,67.60
2019-05-28T13:48:10.180Z,68.21
2019-05-28T13:50:48.058Z,67.25
2019-05-28T13:53:25.515Z,67.15
2019-05-28T13:56:02.949Z,67.70
2019-05-28T13:58:40.798Z,67.65
2019-05-28T14:01:18.380Z,67.42
2019-05-28T14:03:55.948Z,67.33
2019-05-28T14:06:33.996Z,67.35
2019-05-28T14:09:13.011Z,67.74
2019-05-28T14:11:51.827Z,67.48
2019-05-28T14:14:29.732Z,69.71
2019-05-28T14:17:07.356Z,78.69
2019-05-28T14:19:45.205Z,83.02
2019-05-28T14:22:33.525Z,82.65
2019-05-28T14:25:01.814Z,84.29
2019-05-28T14:27:39.436Z,83.74
2019-05-28T14:30:17.723Z,84.09
2019-05-28T14:32:55.381Z,81.75
2019-05-28T14:35:33.289Z,80.28
2019-05-28T14:38:10.642Z,80.74
2019-05-28T14:40:53.635Z,79.85
2019-05-28T14:43:33.093Z,81.14
2019-05-28T14:46:10.420Z,81.10
2019-05-28T14:48:47.406Z,78.62
2019-05-28T14:51:25.084Z,79.02
2019-05-28T14:54:02.637Z,78.94
2019-05-28T14:56:39.635Z,79.55
2019-05-28T14:59:17.665Z,80.77
2019-05-28T15:01:55.592Z,81.22
2019-05-28T15:04:32.788Z,82.00
2019-05-28T15:07:09.951Z,82.82
2019-05-28T15:09:46.846Z,83.74
2019-05-28T15:12:24.428Z,85.01
2019-05-28T15:15:03.087Z,85.87
2019-05-28T15:17:40.799Z,85.29
2019-05-28T15:20:18.291Z,85.03
2019-05-28T15:22:57.574Z,84.67
2019-05-28T15:25:35.025Z,85.50
2019-05-28T15:28:12.717Z,84.40
2019-05-28T15:30:49.795Z,84.73
2019-05-28T15:33:28.259Z,84.93
2019-05-28T15:36:05.672Z,85.01
2019-05-28T15:38:43.366Z,85.73
2019-05-28T15:41:22.093Z,85.83
2019-05-28T15:43:59.838Z,86.11
2019-05-28T15:46:38.388Z,85.30
2019-05-28T15:49:15.946Z,86.02
2019-05-28T15:52:06.892Z,84.44
2019-05-28T15:54:33.495Z,85.13
2019-05-28T15:57:11.014Z,84.53
2019-05-28T15:59:48.517Z,84.79
2019-05-28T16:02:25.812Z,85.67
2019-05-28T16:05:03.969Z,84.93
2019-05-28T16:07:41.990Z,83.37
2019-05-28T16:37:09.366Z,83.39
2019-05-28T16:39:47.697Z,82.97
2019-05-28T16:42:26.488Z,82.97
2019-05-28T16:45:04.461Z,83.76
2019-05-28T16:47:41.795Z,84.41
2019-05-28T16:50:19.167Z,84.42
2019-05-28T16:52:56.886Z,84.58
2019-05-28T16:55:34.484Z,84.59
2019-05-28T16:58:13.314Z,84.62
2019-05-28T17:00:50.578Z,84.87
2019-05-28T17:03:28.357Z,84.23
2019-05-28T17:06:06.363Z,84.57
2019-05-28T17:08:43.655Z,84.73
2019-05-28T17:11:25.076Z,84.71
2019-05-28T17:14:01.229Z,83.45
2019-05-28T17:16:38.438Z,83.59
2019-05-28T17:19:16.483Z,83.62
2019-05-28T17:21:53.868Z,83.81
2019-05-28T17:24:31.354Z,83.21
2019-05-28T17:27:08.448Z,83.64
2019-05-28T17:29:45.932Z,82.75
2019-05-28T17:32:23.092Z,82.95
2019-05-28T17:35:00.896Z,82.55
2019-05-28T17:37:39.510Z,82.53
2019-05-28T17:40:22.048Z,83.80
2019-05-28T17:42:58.093Z,85.14
2019-05-28T17:45:35.013Z,85.62
2019-05-28T17:48:12.584Z,85.84
2019-05-28T17:50:53.029Z,85.21
2019-05-28T17:53:29.870Z,85.07
2019-05-28T17:56:08.257Z,84.93
2019-05-28T17:58:46.486Z,84.75
2019-05-28T18:01:24.119Z,85.11
2019-05-28T18:04:01.425Z,85.12
2019-05-28T18:06:39.476Z,84.64
2019-05-28T18:09:17.512Z,84.97
2019-05-28T18:11:55.044Z,85.15
2019-05-28T18:14:33.547Z,85.54
2019-05-28T18:17:11.206Z,85.25
2019-05-28T18:19:48.951Z,85.51
2019-05-28T18:22:26.530Z,85.50
2019-05-28T18:25:03.966Z,85.61
2019-05-28T18:27:41.777Z,85.81
2019-05-28T18:30:19.693Z,85.90
2019-05-28T18:32:57.043Z,85.96
2019-05-28T18:35:34.349Z,86.34
2019-05-28T18:38:13.042Z,86.37
2019-05-28T18:40:50.545Z,86.36
2019-05-28T18:43:28.379Z,86.31
2019-05-28T18:46:06.659Z,86.50
2019-05-28T18:48:44.176Z,85.90
2019-05-28T18:51:21.600Z,85.91
2019-05-28T18:53:58.786Z,85.97
2019-05-28T18:56:36.959Z,86.17
2019-05-28T18:59:15.205Z,86.46
2019-05-28T19:01:53.104Z,86.55
2019-05-28T19:04:30.017Z,86.11
2019-05-28T19:07:07.478Z,86.37
2019-05-28T19:09:44.947Z,86.14
2019-05-28T19:12:22.485Z,86.04
2019-05-28T19:15:00.046Z,86.35
2019-05-28T19:17:46.148Z,86.40
2019-05-28T19:20:23.069Z,87.00
2019-05-28T19:23:01.061Z,86.81
2019-05-28T19:25:39.570Z,85.98
2019-05-28T19:28:16.907Z,86.43
2019-05-28T19:30:54.663Z,86.64
2019-05-28T19:33:32.941Z,86.75
2019-05-28T19:36:10.605Z,87.03
2019-05-28T19:38:48.817Z,87.02
2019-05-28T19:41:26.434Z,87.41
2019-05-28T19:44:04.082Z,86.96
2019-05-28T19:46:41.930Z,87.11
2019-05-28T19:49:20.258Z,87.19
2019-05-28T19:51:57.990Z,87.40
2019-05-28T19:54:36.743Z,87.15
2019-05-28T19:57:14.462Z,85.86
2019-05-28T19:59:52.153Z,84.86
2019-05-28T20:02:30.256Z,85.37
2019-05-28T20:05:08.451Z,85.83
2019-05-28T20:07:45.544Z,86.50
2019-05-28T20:10:22.761Z,86.28
2019-05-28T20:13:00.693Z,86.85
2019-05-28T20:15:39.175Z,86.20
2019-05-28T20:18:26.476Z,86.06
2019-05-28T20:20:57.638Z,85.42
2019-05-28T20:23:35.156Z,85.95
2019-05-28T20:26:12.717Z,86.15
2019-05-28T20:28:58.702Z,86.09
2019-05-28T20:31:28.732Z,85.89
2019-05-28T20:34:07.341Z,85.85
2019-05-28T20:36:45.534Z,86.39
2019-05-28T20:39:23.863Z,86.44
2019-05-28T20:42:01.983Z,86.42
2019-05-28T20:44:41.460Z,86.22
2019-05-28T20:47:20.195Z,85.85
2019-05-28T20:49:57.727Z,86.03
2019-05-28T20:52:36.694Z,86.19
2019-05-28T20:55:14.784Z,86.64
2019-05-28T20:57:53.355Z,86.36
2019-05-28T21:00:30.973Z,86.68
2019-05-28T21:03:08.387Z,86.59
2019-05-28T21:05:46.225Z,86.78
2019-05-28T21:08:24.138Z,86.38
2019-05-28T21:11:01.613Z,86.21
2019-05-28T21:13:38.998Z,86.22
2019-05-28T21:16:16.459Z,86.73
2019-05-28T21:18:55.023Z,86.40
2019-05-28T21:21:32.925Z,86.36
2019-05-28T21:24:11.325Z,87.04
2019-05-28T21:26:50.018Z,87.72
2019-05-28T21:29:30.465Z,87.78
2019-05-28T21:32:08.970Z,87.24
2019-05-28T21:34:46.243Z,87.63
2019-05-28T21:37:24.872Z,87.71
2019-05-28T21:40:04.038Z,87.95
2019-05-28T21:42:41.708Z,87.78
2019-05-28T21:45:20.663Z,87.84
2019-05-28T21:47:58.667Z,88.56
2019-05-28T21:50:37.843Z,88.75
2019-05-28T21:53:15.530Z,88.25
2019-05-28T21:55:55.114Z,88.69
2019-05-28T21:58:32.421Z,89.17
2019-05-28T22:01:14.243Z,89.57
2019-05-28T22:03:52.612Z,89.41
2019-05-28T22:06:30.431Z,88.90
2019-05-28T22:09:09.491Z,89.01
2019-05-28T22:11:46.992Z,88.83
2019-05-28T22:14:24.644Z,89.04
2019-05-28T22:17:03.723Z,88.84
2019-05-28T22:19:42.013Z,88.86
2019-05-28T22:22:19.962Z,89.00
2019-05-28T22:24:58.547Z,89.13
2019-05-28T22:27:37.359Z,88.89
2019-05-28T22:30:15.432Z,88.49
2019-05-28T22:32:53.843Z,88.52
2019-05-28T22:35:31.461Z,88.18
2019-05-28T22:38:10.778Z,88.75
2019-05-28T22:40:49.286Z,88.58
2019-05-28T22:43:31.558Z,88.23
2019-05-28T22:46:07.385Z,88.42
2019-05-28T22:48:44.851Z,89.16
2019-05-28T22:51:22.812Z,89.01
2019-05-28T22:54:09.421Z,88.92
2019-05-28T22:56:46.861Z,88.75
2019-05-28T22:59:25.718Z,88.83
2019-05-28T23:02:03.329Z,88.51
2019-05-28T23:04:40.826Z,88.38
2019-05-28T23:07:18.741Z,88.46
2019-05-28T23:09:56.355Z,88.63
2019-05-28T23:12:34.137Z,88.71
2019-05-28T23:15:12.684Z,88.25
2019-05-28T23:17:50.115Z,88.72
2019-05-28T23:20:27.919Z,89.40
2019-05-28T23:23:05.516Z,89.54
2019-05-28T23:25:45.432Z,89.35
2019-05-28T23:28:22.778Z,88.85
2019-05-28T23:31:01.801Z,88.64
2019-05-28T23:33:39.489Z,88.79
2019-05-28T23:36:17.499Z,88.48
2019-05-28T23:38:55.202Z,87.96
2019-05-28T23:41:33.240Z,87.78
2019-05-28T23:44:11.677Z,87.26
2019-05-28T23:46:51.119Z,86.18
2019-05-28T23:49:29.804Z,86.29
2019-05-28T23:52:08.555Z,85.69
2019-05-28T23:54:46.319Z,84.79
2019-05-28T23:57:24.325Z,84.94
